Terminal Aerodrome Forecast
Issued by NWS Cleveland, OH

Home | Current Version | Previous Version | Graphics & Text | Print | Product List | Glossary On
Versions: 1 2 3 4 5 6 7 8 9 10 11 12 13 14 15
318
FTUS41 KCLE 031730
TAFYNG
TAF
KYNG 031730Z 0318/0418 33006KT P6SM SCT025 BKN060
      TEMPO 0318/0319 BKN025
     FM040100 VRB03KT P6SM BKN100
     FM041200 20010KT P6SM OVC100=

USA.gov is the U.S. government's official web portal to all federal, state and local government web resources and services.